createdAt,value
2018-11-02T00:01:56.032Z,22.00
2018-11-02T00:04:24.679Z,23.80
2018-11-02T00:06:53.256Z,22.90
2018-11-02T00:09:21.789Z,21.73
2018-11-02T00:11:50.272Z,22.47
2018-11-02T00:14:18.814Z,21.80
2018-11-02T00:16:47.359Z,22.90
2018-11-02T00:19:15.980Z,23.23
2018-11-02T00:21:44.587Z,21.13
2018-11-02T00:24:13.069Z,23.10
2018-11-02T00:26:41.629Z,22.57
2018-11-02T00:29:10.154Z,23.30
2018-11-02T00:31:38.746Z,21.43
2018-11-02T00:34:07.313Z,22.40
2018-11-02T00:36:35.909Z,23.70
2018-11-02T00:39:05.531Z,22.33
2018-11-02T00:41:34.049Z,23.23
2018-11-02T00:44:02.601Z,21.63
2018-11-02T00:46:31.236Z,22.80
2018-11-02T00:48:59.746Z,22.97
2018-11-02T00:51:28.277Z,22.80
2018-11-02T00:53:56.763Z,22.67
2018-11-02T00:56:25.282Z,23.60
2018-11-02T00:58:53.880Z,25.07
2018-11-02T01:01:22.408Z,25.23
2018-11-02T01:03:51.063Z,22.30
2018-11-02T01:06:19.550Z,23.37
2018-11-02T01:08:48.105Z,24.43
2018-11-02T01:11:16.700Z,24.00
2018-11-02T01:13:45.193Z,21.63
2018-11-02T01:16:13.741Z,21.53
2018-11-02T01:18:42.676Z,21.83
2018-11-02T01:21:11.202Z,22.50
2018-11-02T01:23:39.693Z,21.17
2018-11-02T01:26:08.229Z,22.93
2018-11-02T01:28:36.837Z,23.00
2018-11-02T01:31:05.409Z,23.80
2018-11-02T01:33:39.069Z,23.80
2018-11-02T01:36:09.087Z,23.50
2018-11-02T01:38:37.845Z,22.03
2018-11-02T01:41:06.634Z,24.07
2018-11-02T01:43:35.237Z,22.30
2018-11-02T01:46:03.817Z,21.83
2018-11-02T01:48:32.317Z,21.63
2018-11-02T01:51:00.858Z,21.23
2018-11-02T01:53:29.459Z,20.23
2018-11-02T01:55:58.041Z,20.70
2018-11-02T01:58:26.606Z,19.70
2018-11-02T02:00:55.173Z,19.60
2018-11-02T02:03:23.682Z,19.87
2018-11-02T02:05:52.205Z,18.57
2018-11-02T02:08:20.808Z,19.27
2018-11-02T02:10:49.310Z,18.70
2018-11-02T02:13:17.880Z,20.10
2018-11-02T02:15:46.435Z,16.77
2018-11-02T02:18:15.044Z,20.67
2018-11-02T02:20:43.541Z,18.70
2018-11-02T02:23:12.098Z,17.83
2018-11-02T02:25:40.686Z,18.60
2018-11-02T02:28:09.334Z,19.17
2018-11-02T02:30:37.849Z,20.20
2018-11-02T02:33:06.430Z,17.00
2018-11-02T02:35:34.961Z,19.17
2018-11-02T02:38:03.475Z,17.93
2018-11-02T02:40:32.027Z,19.60
2018-11-02T02:43:00.738Z,17.27
2018-11-02T02:45:29.241Z,17.20
2018-11-02T02:47:57.738Z,18.57
2018-11-02T02:50:26.265Z,17.90
2018-11-02T02:52:54.789Z,17.80
2018-11-02T02:55:23.284Z,17.52
2018-11-02T02:57:51.774Z,17.87
2018-11-02T03:00:20.347Z,18.10
2018-11-02T03:02:48.874Z,17.37
2018-11-02T03:05:17.444Z,18.47
2018-11-02T03:07:45.978Z,17.13
2018-11-02T03:10:14.514Z,17.90
2018-11-02T03:12:43.054Z,18.10
2018-11-02T03:15:11.597Z,18.53
2018-11-02T03:17:40.162Z,18.00
2018-11-02T03:20:09.794Z,18.10
2018-11-02T03:22:38.577Z,18.67
2018-11-02T03:25:07.849Z,18.80
2018-11-02T03:27:36.405Z,20.40
2018-11-02T03:30:05.637Z,20.57
2018-11-02T03:32:34.118Z,18.23
2018-11-02T03:35:02.744Z,18.37
2018-11-02T03:37:31.262Z,18.30
2018-11-02T03:39:59.800Z,18.30
2018-11-02T03:42:28.315Z,18.33
2018-11-02T03:44:56.864Z,18.30
2018-11-02T03:47:25.482Z,18.40
2018-11-02T03:49:54.023Z,19.90
2018-11-02T03:52:22.527Z,20.80
2018-11-02T03:54:51.614Z,21.53
2018-11-02T03:57:20.149Z,18.70
2018-11-02T03:59:48.641Z,23.27
2018-11-02T04:02:17.244Z,20.60
2018-11-02T04:04:45.773Z,22.53
2018-11-02T04:07:14.373Z,20.33
2018-11-02T04:09:43.050Z,21.03
2018-11-02T04:12:11.538Z,21.40
2018-11-02T04:14:40.039Z,20.60
2018-11-02T04:17:08.562Z,20.47
2018-11-02T04:19:37.189Z,16.60
2018-11-02T04:22:05.885Z,19.93
2018-11-02T04:24:34.373Z,15.50
2018-11-02T04:27:02.934Z,9.83
2018-11-02T04:29:31.437Z,10.20
2018-11-02T04:32:00.149Z,7.60
2018-11-02T04:34:28.633Z,6.57
2018-11-02T04:36:57.140Z,6.00
2018-11-02T04:39:25.633Z,3.90
2018-11-02T04:41:54.120Z,4.27
2018-11-02T04:44:22.641Z,4.23
2018-11-02T04:46:51.120Z,4.10
2018-11-02T04:49:19.677Z,3.87
2018-11-02T04:51:48.138Z,2.80
2018-11-02T04:54:16.635Z,3.30
2018-11-02T04:56:45.152Z,3.07
2018-11-02T04:59:13.639Z,2.87
2018-11-02T05:01:42.183Z,2.50
2018-11-02T05:04:10.784Z,2.30
2018-11-02T05:06:39.277Z,3.00
2018-11-02T05:09:08.621Z,3.20
2018-11-02T05:11:37.231Z,2.83
2018-11-02T05:14:06.199Z,2.60
2018-11-02T05:16:34.684Z,4.13
2018-11-02T05:19:03.377Z,2.83
2018-11-02T05:21:31.932Z,3.07
2018-11-02T05:24:00.430Z,3.03
2018-11-02T05:26:28.963Z,2.50
2018-11-02T05:28:57.462Z,3.20
2018-11-02T05:31:26.007Z,2.20
2018-11-02T05:33:54.541Z,2.30
2018-11-02T05:36:23.026Z,2.37
2018-11-02T05:38:51.553Z,1.73
2018-11-02T05:41:20.222Z,2.23
2018-11-02T05:43:48.764Z,2.20
2018-11-02T05:46:17.273Z,2.20
2018-11-02T05:48:45.813Z,2.23
2018-11-02T05:51:14.361Z,2.93
2018-11-02T05:53:42.849Z,2.30
2018-11-02T05:56:11.382Z,2.20
2018-11-02T05:58:39.887Z,2.30
2018-11-02T06:01:08.457Z,2.07
2018-11-02T06:03:37.025Z,3.10
2018-11-02T06:06:06.486Z,2.43
2018-11-02T06:08:35.003Z,4.33
2018-11-02T06:11:03.575Z,3.57
2018-11-02T06:13:32.144Z,3.60
2018-11-02T06:16:00.682Z,2.90
2018-11-02T06:18:29.190Z,3.53
2018-11-02T06:20:57.728Z,2.63
2018-11-02T06:23:26.305Z,3.00
2018-11-02T06:25:54.876Z,3.00
2018-11-02T06:28:23.374Z,3.40
2018-11-02T06:30:51.992Z,2.97
2018-11-02T06:33:20.542Z,2.80
2018-11-02T06:35:49.115Z,2.80
2018-11-02T06:38:17.611Z,3.23
2018-11-02T06:40:46.106Z,3.40
2018-11-02T06:43:14.676Z,3.37
2018-11-02T06:45:43.177Z,3.83
2018-11-02T06:48:11.687Z,3.17
2018-11-02T06:50:40.268Z,3.33
2018-11-02T06:53:08.858Z,4.00
2018-11-02T06:55:37.400Z,5.40
2018-11-02T06:58:06.170Z,4.07
2018-11-02T07:00:34.835Z,3.93
2018-11-02T07:03:03.243Z,5.00
2018-11-02T07:05:31.793Z,5.67
2018-11-02T07:08:00.376Z,4.33
2018-11-02T07:10:28.818Z,5.03
2018-11-02T07:12:57.417Z,5.33
2018-11-02T07:15:25.877Z,4.47
2018-11-02T07:17:54.435Z,4.03
2018-11-02T07:20:22.991Z,4.20
2018-11-02T07:22:51.542Z,4.40
2018-11-02T07:25:20.190Z,4.03
2018-11-02T07:27:48.649Z,3.73
2018-11-02T07:30:17.186Z,4.10
2018-11-02T07:32:45.757Z,3.60
2018-11-02T07:35:14.301Z,3.50
2018-11-02T07:37:42.864Z,4.53
2018-11-02T07:40:12.097Z,3.73
2018-11-02T07:42:40.850Z,4.57
2018-11-02T07:45:09.928Z,4.07
2018-11-02T07:47:38.596Z,3.90
2018-11-02T07:50:09.198Z,4.30
2018-11-02T07:52:37.769Z,5.33
2018-11-02T07:55:08.121Z,5.97
2018-11-02T07:57:36.871Z,4.20
2018-11-02T08:00:05.580Z,5.00
2018-11-02T08:02:34.056Z,5.03
2018-11-02T08:05:02.563Z,5.57
2018-11-02T08:07:31.153Z,6.23
2018-11-02T08:09:59.694Z,4.97
2018-11-02T08:12:28.238Z,6.13
2018-11-02T08:14:56.810Z,7.07
2018-11-02T08:17:25.375Z,5.50
2018-11-02T08:19:53.947Z,5.67
2018-11-02T08:22:22.463Z,7.27
2018-11-02T08:24:51.001Z,5.63
2018-11-02T08:27:19.473Z,5.87
2018-11-02T08:29:47.998Z,7.50
2018-11-02T08:32:16.654Z,6.27
2018-11-02T08:34:45.114Z,7.07
2018-11-02T08:37:13.609Z,6.80
2018-11-02T08:39:42.100Z,6.27
2018-11-02T08:42:10.771Z,6.33
2018-11-02T08:44:39.304Z,5.50
2018-11-02T08:47:07.882Z,6.10
2018-11-02T08:49:36.374Z,5.67
2018-11-02T08:52:05.262Z,5.87
2018-11-02T08:54:33.855Z,5.13
2018-11-02T08:57:02.359Z,4.83
2018-11-02T08:59:31.036Z,4.30
2018-11-02T09:01:59.674Z,4.20
2018-11-02T09:04:28.359Z,3.93
2018-11-02T09:06:56.869Z,3.97
2018-11-02T09:09:25.362Z,4.00
2018-11-02T09:11:54.013Z,4.67
2018-11-02T09:14:22.486Z,4.77
2018-11-02T09:16:51.071Z,5.60
2018-11-02T09:19:19.713Z,5.23
2018-11-02T09:21:48.124Z,4.30
2018-11-02T09:24:16.627Z,5.03
2018-11-02T09:26:45.197Z,4.13
2018-11-02T09:29:13.684Z,4.73
2018-11-02T09:31:42.225Z,4.27
2018-11-02T09:34:10.737Z,4.60
2018-11-02T09:36:39.367Z,4.60
2018-11-02T09:39:10.010Z,4.30
2018-11-02T09:41:38.579Z,4.00
2018-11-02T09:44:07.077Z,4.20
2018-11-02T09:46:35.848Z,4.57
2018-11-02T09:49:04.402Z,4.70
2018-11-02T09:51:33.038Z,4.30
2018-11-02T09:54:01.601Z,5.27
2018-11-02T09:56:30.111Z,4.80
2018-11-02T09:58:58.675Z,4.73
2018-11-02T10:01:27.290Z,4.90
2018-11-02T10:03:55.783Z,4.80
2018-11-02T10:06:24.369Z,5.50
2018-11-02T10:08:52.943Z,4.90
2018-11-02T10:11:21.477Z,5.27
2018-11-02T10:13:50.030Z,4.93
2018-11-02T10:16:18.631Z,6.13
2018-11-02T10:18:47.141Z,6.13
2018-11-02T10:21:15.748Z,6.10
2018-11-02T10:23:44.344Z,6.27
2018-11-02T10:26:12.885Z,8.53
2018-11-02T10:28:41.484Z,6.23
2018-11-02T10:31:10.099Z,5.30
2018-11-02T10:33:38.626Z,5.90
2018-11-02T10:36:07.367Z,4.95
2018-11-02T10:38:36.037Z,5.53
2018-11-02T10:41:05.582Z,5.50
2018-11-02T10:43:34.363Z,6.00
2018-11-02T10:46:03.051Z,4.93
2018-11-02T10:48:31.681Z,4.93
2018-11-02T10:51:00.216Z,5.13
2018-11-02T10:53:28.809Z,5.90
2018-11-02T10:55:57.310Z,4.93
2018-11-02T10:58:25.853Z,4.53
2018-11-02T11:00:59.673Z,5.10
2018-11-02T11:03:28.079Z,6.07
2018-11-02T11:05:56.618Z,3.73
2018-11-02T11:08:25.219Z,3.97
2018-11-02T11:10:53.781Z,3.97
2018-11-02T11:13:22.683Z,4.13
2018-11-02T11:15:50.872Z,3.90
2018-11-02T11:18:19.372Z,4.37
2018-11-02T11:20:47.911Z,3.30
2018-11-02T11:23:16.483Z,2.50
2018-11-02T11:25:44.969Z,3.17
2018-11-02T11:28:13.553Z,3.27
2018-11-02T11:30:42.091Z,3.33
2018-11-02T11:33:10.642Z,3.00
2018-11-02T11:35:39.241Z,2.57
2018-11-02T11:38:07.898Z,2.80
2018-11-02T11:40:36.493Z,3.10
2018-11-02T11:43:05.041Z,2.90
2018-11-02T11:45:33.570Z,4.37
2018-11-02T11:48:02.103Z,2.37
2018-11-02T11:50:30.638Z,3.07
2018-11-02T11:52:59.213Z,2.43
2018-11-02T11:55:27.799Z,2.90
2018-11-02T11:57:56.360Z,3.13
2018-11-02T12:00:24.921Z,3.50
2018-11-02T12:02:53.882Z,3.00
2018-11-02T12:05:23.457Z,2.80
2018-11-02T12:07:52.010Z,2.57
2018-11-02T12:10:21.994Z,2.80
2018-11-02T12:12:50.482Z,2.93
2018-11-02T12:15:20.236Z,2.87
2018-11-02T12:17:49.209Z,2.50
2018-11-02T12:20:19.173Z,2.50
2018-11-02T12:22:48.397Z,2.73
2018-11-02T12:25:16.982Z,2.80
2018-11-02T12:27:45.594Z,2.73
2018-11-02T12:30:15.398Z,2.80
2018-11-02T12:32:43.941Z,3.10
2018-11-02T12:35:13.650Z,3.20
2018-11-02T12:37:42.269Z,2.50
2018-11-02T12:40:12.925Z,2.80
2018-11-02T12:42:41.904Z,3.10
2018-11-02T12:45:13.081Z,3.13
2018-11-02T12:47:42.007Z,2.83
2018-11-02T12:50:13.208Z,2.33
2018-11-02T12:52:41.920Z,2.90
2018-11-02T12:55:11.098Z,2.40
2018-11-02T12:57:39.819Z,2.70
2018-11-02T13:00:10.804Z,2.67
2018-11-02T13:02:39.505Z,2.00
2018-11-02T13:05:08.921Z,2.30
2018-11-02T13:07:37.810Z,2.07
2018-11-02T13:10:06.705Z,2.77
2018-11-02T13:12:35.281Z,2.10
2018-11-02T13:15:03.882Z,1.90
2018-11-02T13:17:32.517Z,2.83
2018-11-02T13:20:01.067Z,2.27
2018-11-02T13:22:29.557Z,2.37
2018-11-02T13:24:58.058Z,3.20
2018-11-02T13:27:26.624Z,2.00
2018-11-02T13:29:55.210Z,1.57
2018-11-02T13:32:23.831Z,1.30
2018-11-02T13:34:52.472Z,2.17
2018-11-02T13:37:21.293Z,1.50
2018-11-02T13:39:49.933Z,2.00
2018-11-02T13:42:18.481Z,2.00
2018-11-02T13:44:47.042Z,4.00
2018-11-02T13:47:15.617Z,2.13
2018-11-02T13:49:44.145Z,2.43
2018-11-02T13:52:12.785Z,2.70
2018-11-02T13:54:41.295Z,4.40
2018-11-02T13:57:09.878Z,10.10
2018-11-02T13:59:38.598Z,7.73
2018-11-02T14:02:07.937Z,6.17
2018-11-02T14:04:36.434Z,6.17
2018-11-02T14:07:04.987Z,4.13
2018-11-02T14:09:33.523Z,3.40
2018-11-02T14:12:02.074Z,3.97
2018-11-02T14:14:30.722Z,4.67
2018-11-02T14:16:59.258Z,4.10
2018-11-02T14:19:27.734Z,3.77
2018-11-02T14:21:56.376Z,3.83
2018-11-02T14:24:24.933Z,3.97
2018-11-02T14:26:53.439Z,4.23
2018-11-02T14:29:22.094Z,3.67
2018-11-02T14:31:50.635Z,4.30
2018-11-02T14:34:19.250Z,3.93
2018-11-02T14:36:47.916Z,4.87
2018-11-02T14:39:16.449Z,5.33
2018-11-02T14:41:45.368Z,4.60
2018-11-02T14:44:13.929Z,5.10
2018-11-02T14:46:42.649Z,4.35
2018-11-02T14:49:11.138Z,4.37
2018-11-02T14:51:39.818Z,5.00
2018-11-02T14:54:08.345Z,6.70
2018-11-02T14:56:36.925Z,6.33
2018-11-02T14:59:05.530Z,5.87
2018-11-02T15:01:34.190Z,6.90
2018-11-02T15:04:03.136Z,5.93
2018-11-02T15:06:31.642Z,6.53
2018-11-02T15:09:00.190Z,6.40
2018-11-02T15:11:28.825Z,6.10
2018-11-02T15:13:57.223Z,7.37
2018-11-02T15:16:25.908Z,7.50
2018-11-02T15:18:54.483Z,7.00
2018-11-02T15:21:22.989Z,8.50
2018-11-02T15:23:51.591Z,9.43
2018-11-02T15:26:20.177Z,6.40
2018-11-02T15:28:48.657Z,7.60
2018-11-02T15:31:17.133Z,7.33
2018-11-02T15:33:45.700Z,7.57
2018-11-02T15:36:14.198Z,7.43
2018-11-02T15:38:42.742Z,7.07
2018-11-02T15:41:11.364Z,6.97
2018-11-02T15:43:39.869Z,6.93
2018-11-02T15:46:08.407Z,8.00
2018-11-02T15:48:36.906Z,8.10
2018-11-02T15:51:05.643Z,7.67
2018-11-02T15:53:34.171Z,9.03
2018-11-02T15:56:02.746Z,8.60
2018-11-02T15:58:31.357Z,10.00
2018-11-02T16:00:59.895Z,10.33
2018-11-02T16:03:28.531Z,10.20
2018-11-02T16:05:57.055Z,12.30
2018-11-02T16:08:25.540Z,9.70
2018-11-02T16:10:54.110Z,10.13
2018-11-02T16:13:22.676Z,9.57
2018-11-02T16:15:51.381Z,11.10
2018-11-02T16:18:19.976Z,11.70
2018-11-02T16:20:48.511Z,10.70
2018-11-02T16:23:17.065Z,10.87
2018-11-02T16:25:45.613Z,10.30
2018-11-02T16:28:14.086Z,12.87
2018-11-02T16:30:42.638Z,11.33
2018-11-02T16:33:11.174Z,11.77
2018-11-02T16:35:39.713Z,11.70
2018-11-02T16:38:08.208Z,10.90
2018-11-02T16:40:36.746Z,12.83
2018-11-02T16:43:05.453Z,12.37
2018-11-02T16:45:34.027Z,11.07
2018-11-02T16:48:02.674Z,11.27
2018-11-02T16:50:31.245Z,10.50
2018-11-02T16:52:59.740Z,11.50
2018-11-02T16:55:28.285Z,11.37
2018-11-02T16:57:57.015Z,11.40
2018-11-02T17:00:25.505Z,10.90
2018-11-02T17:02:54.088Z,12.23
2018-11-02T17:05:22.613Z,11.70
2018-11-02T17:07:51.125Z,11.30
2018-11-02T17:10:19.835Z,11.83
2018-11-02T17:12:48.387Z,12.50
2018-11-02T17:15:16.885Z,11.10
2018-11-02T17:17:45.489Z,12.27
2018-11-02T17:20:15.205Z,10.60
2018-11-02T17:22:43.706Z,12.80
2018-11-02T17:25:12.670Z,15.97
2018-11-02T17:27:41.326Z,14.37
2018-11-02T17:30:12.722Z,12.20
2018-11-02T17:32:41.376Z,10.50
2018-11-02T17:35:10.467Z,12.53
2018-11-02T17:37:38.976Z,11.27
2018-11-02T17:40:10.131Z,10.60
2018-11-02T17:42:38.667Z,12.00
2018-11-02T17:45:09.028Z,11.93
2018-11-02T17:47:38.729Z,11.37
2018-11-02T17:50:08.379Z,11.50
2018-11-02T17:52:36.938Z,10.50
2018-11-02T17:55:05.606Z,10.80
2018-11-02T17:57:34.220Z,11.30
2018-11-02T18:00:02.783Z,10.93
2018-11-02T18:02:37.787Z,10.50
2018-11-02T18:05:06.879Z,12.00
2018-11-02T18:07:35.509Z,12.97
2018-11-02T18:10:04.240Z,12.20
2018-11-02T18:12:32.749Z,12.30
2018-11-02T18:15:01.276Z,13.13
2018-11-02T18:17:29.793Z,14.10
2018-11-02T18:19:58.314Z,14.17
2018-11-02T18:22:26.899Z,15.07
2018-11-02T18:24:55.404Z,12.80
2018-11-02T18:27:23.945Z,14.30
2018-11-02T18:29:52.570Z,14.87
2018-11-02T18:32:21.119Z,14.80
2018-11-02T18:34:49.791Z,15.30
2018-11-02T18:37:18.306Z,15.67
2018-11-02T18:39:46.861Z,16.70
2018-11-02T18:42:15.453Z,20.33
2018-11-02T18:44:44.042Z,17.60
2018-11-02T18:47:12.607Z,14.10
2018-11-02T18:49:41.152Z,13.83
2018-11-02T18:52:09.749Z,12.37
2018-11-02T18:54:38.365Z,12.93
2018-11-02T18:57:07.082Z,12.20
2018-11-02T18:59:35.630Z,12.17
2018-11-02T19:02:04.233Z,11.87
2018-11-02T19:04:33.169Z,12.80
2018-11-02T19:07:02.609Z,12.37
2018-11-02T19:09:31.769Z,14.70
2018-11-02T19:12:00.583Z,12.10
2018-11-02T19:14:29.184Z,13.70
2018-11-02T19:16:57.930Z,11.27
2018-11-02T19:19:26.438Z,11.30
2018-11-02T19:21:55.097Z,11.10
2018-11-02T19:24:24.573Z,11.03
2018-11-02T19:26:53.225Z,16.90
2018-11-02T19:29:21.766Z,13.03
2018-11-02T19:31:50.254Z,14.93
2018-11-02T19:34:18.964Z,13.90
2018-11-02T19:36:47.456Z,13.80
2018-11-02T19:39:16.130Z,13.33
2018-11-02T19:41:44.958Z,13.30
2018-11-02T19:44:13.534Z,13.40
2018-11-02T19:46:42.116Z,13.33
2018-11-02T19:49:10.804Z,12.73
2018-11-02T19:51:39.303Z,12.30
2018-11-02T19:54:07.942Z,13.70
2018-11-02T19:56:36.537Z,14.10
2018-11-02T19:59:05.127Z,12.73
2018-11-02T20:01:33.731Z,12.47
2018-11-02T20:04:02.233Z,11.70
2018-11-02T20:06:30.977Z,16.63
2018-11-02T20:08:59.634Z,13.90
2018-11-02T20:11:28.150Z,11.63
2018-11-02T20:13:56.873Z,11.23
2018-11-02T20:16:25.453Z,12.57
2018-11-02T20:18:54.135Z,12.33
2018-11-02T20:21:22.637Z,12.67
2018-11-02T20:23:51.196Z,12.53
2018-11-02T20:26:19.986Z,13.87
2018-11-02T20:28:48.513Z,13.37
2018-11-02T20:31:17.119Z,14.17
2018-11-02T20:33:45.862Z,14.67
2018-11-02T20:36:14.526Z,14.03
2018-11-02T20:38:43.078Z,14.87
2018-11-02T20:41:11.686Z,14.83
2018-11-02T20:43:40.223Z,15.30
2018-11-02T20:46:08.824Z,14.07
2018-11-02T20:48:37.413Z,15.80
2018-11-02T20:51:06.549Z,17.10
2018-11-02T20:53:35.100Z,14.87
2018-11-02T20:56:03.719Z,14.00
2018-11-02T20:58:32.362Z,17.00
2018-11-02T21:01:01.009Z,15.20
2018-11-02T21:03:29.614Z,14.30
2018-11-02T21:05:58.165Z,14.83
2018-11-02T21:08:26.857Z,14.87
2018-11-02T21:10:55.373Z,14.03
2018-11-02T21:13:24.017Z,14.30
2018-11-02T21:15:52.749Z,14.37
2018-11-02T21:18:21.290Z,13.20
2018-11-02T21:20:49.894Z,13.57
2018-11-02T21:23:18.428Z,13.10
2018-11-02T21:25:46.990Z,13.67
2018-11-02T21:28:15.623Z,16.23
2018-11-02T21:30:44.153Z,14.03
2018-11-02T21:33:12.963Z,14.47
2018-11-02T21:35:41.469Z,14.63
2018-11-02T21:38:10.092Z,13.33
2018-11-02T21:40:38.561Z,13.83
2018-11-02T21:43:07.355Z,13.90
2018-11-02T21:45:36.088Z,13.47
2018-11-02T21:48:04.689Z,13.80
2018-11-02T21:50:33.494Z,11.87
2018-11-02T21:53:02.507Z,13.37
2018-11-02T21:55:31.057Z,13.20
2018-11-02T21:57:59.707Z,13.10
2018-11-02T22:00:28.260Z,13.93
2018-11-02T22:02:56.931Z,13.87
2018-11-02T22:05:25.445Z,13.13
2018-11-02T22:07:54.046Z,13.00
2018-11-02T22:10:22.561Z,13.60
2018-11-02T22:12:51.117Z,13.73
2018-11-02T22:15:19.734Z,13.97
2018-11-02T22:17:48.287Z,13.80
2018-11-02T22:20:17.005Z,13.80
2018-11-02T22:22:45.696Z,14.27
2018-11-02T22:25:14.996Z,14.97
2018-11-02T22:27:43.844Z,15.17
2018-11-02T22:30:14.903Z,14.20
2018-11-02T22:32:43.389Z,16.77
2018-11-02T22:35:12.638Z,18.10
2018-11-02T22:37:41.333Z,18.40
2018-11-02T22:40:11.134Z,18.60
2018-11-02T22:42:40.030Z,18.57
2018-11-02T22:45:09.223Z,18.90
2018-11-02T22:47:37.773Z,20.73
2018-11-02T22:50:06.993Z,19.20
2018-11-02T22:52:35.698Z,19.03
2018-11-02T22:55:04.194Z,19.53
2018-11-02T22:57:32.689Z,18.40
2018-11-02T23:00:01.246Z,18.67
2018-11-02T23:02:32.709Z,19.90
2018-11-02T23:05:01.266Z,21.17
2018-11-02T23:07:29.876Z,21.63
2018-11-02T23:09:58.437Z,22.40
2018-11-02T23:12:26.985Z,18.97
2018-11-02T23:14:55.465Z,20.77
2018-11-02T23:17:24.034Z,21.30
2018-11-02T23:19:52.564Z,22.27
2018-11-02T23:22:21.515Z,20.60
2018-11-02T23:24:50.436Z,21.70
2018-11-02T23:27:18.979Z,23.00
2018-11-02T23:29:47.628Z,22.87
2018-11-02T23:32:16.417Z,22.47
2018-11-02T23:34:45.010Z,22.73
2018-11-02T23:37:13.597Z,21.87
2018-11-02T23:39:42.154Z,23.47
2018-11-02T23:42:10.742Z,22.77
2018-11-02T23:44:39.253Z,24.27
2018-11-02T23:47:07.785Z,23.93
2018-11-02T23:49:36.350Z,21.50
2018-11-02T23:52:04.944Z,22.97
2018-11-02T23:54:33.465Z,22.73
2018-11-02T23:57:02.023Z,22.37
2018-11-02T23:59:30.705Z,21.90
